createdAt,value
2022-07-27T00:01:23.312Z,100.00
2022-07-27T00:03:52.716Z,100.00
2022-07-27T00:06:23.538Z,100.00
2022-07-27T00:08:53.205Z,100.00
2022-07-27T00:11:22.456Z,100.00
2022-07-27T00:13:51.747Z,100.00
2022-07-27T00:16:21.234Z,100.00
2022-07-27T00:18:50.621Z,100.00
2022-07-27T00:21:19.914Z,100.00
2022-07-27T00:23:56.561Z,100.00
2022-07-27T00:26:26.059Z,100.00
2022-07-27T00:28:55.332Z,100.00
2022-07-27T00:31:24.752Z,100.00
2022-07-27T00:33:54.063Z,100.00
2022-07-27T00:36:23.351Z,100.00
2022-07-27T00:38:52.693Z,100.00
2022-07-27T00:41:23.622Z,100.00
2022-07-27T00:43:55.853Z,100.00
2022-07-27T00:46:26.309Z,100.00
2022-07-27T00:48:55.728Z,100.00
2022-07-27T00:51:25.845Z,100.00
2022-07-27T00:53:56.482Z,100.00
2022-07-27T00:56:27.426Z,100.00
2022-07-27T00:58:58.307Z,100.00
2022-07-27T01:01:27.615Z,100.00
2022-07-27T01:04:02.956Z,100.00
2022-07-27T01:06:36.680Z,100.00
2022-07-27T01:09:23.281Z,100.00
2022-07-27T01:11:53.923Z,100.00
2022-07-27T01:14:28.671Z,100.00
2022-07-27T01:16:58.106Z,100.00
2022-07-27T01:19:27.441Z,100.00
2022-07-27T01:21:58.173Z,100.00
2022-07-27T01:24:27.400Z,100.00
2022-07-27T01:26:56.644Z,100.00
2022-07-27T01:29:25.820Z,100.00
2022-07-27T01:31:55.178Z,100.00
2022-07-27T01:34:24.381Z,100.00
2022-07-27T01:36:53.804Z,100.00
2022-07-27T01:39:24.409Z,100.00
2022-07-27T01:41:53.687Z,100.00
2022-07-27T01:44:22.875Z,100.00
2022-07-27T01:46:52.698Z,100.00
2022-07-27T01:49:22.409Z,100.00
2022-07-27T01:51:51.761Z,100.00
2022-07-27T01:54:21.030Z,100.00
2022-07-27T01:56:52.218Z,100.00
2022-07-27T01:59:27.299Z,100.00
2022-07-27T02:01:56.604Z,100.00
2022-07-27T02:04:25.837Z,100.00
2022-07-27T02:06:55.037Z,100.00
2022-07-27T02:09:25.978Z,100.00
2022-07-27T02:12:14.109Z,100.00
2022-07-27T02:14:43.358Z,100.00
2022-07-27T02:17:12.928Z,100.00
2022-07-27T02:19:44.441Z,100.00
2022-07-27T02:22:13.705Z,100.00
2022-07-27T02:24:43.036Z,100.00
2022-07-27T02:27:13.991Z,100.00
2022-07-27T02:29:43.347Z,100.00
2022-07-27T02:32:12.748Z,100.00
2022-07-27T02:34:42.533Z,100.00
2022-07-27T02:37:11.819Z,100.00
2022-07-27T02:39:41.311Z,100.00
2022-07-27T02:42:10.926Z,100.00
2022-07-27T02:44:41.697Z,100.00
2022-07-27T02:47:11.067Z,100.00
2022-07-27T02:49:40.412Z,100.00
2022-07-27T02:52:10.390Z,100.00
2022-07-27T02:54:43.654Z,100.00
2022-07-27T02:57:12.981Z,100.00
2022-07-27T02:59:44.995Z,100.00
2022-07-27T03:02:19.463Z,100.00
2022-07-27T03:04:49.037Z,100.00
2022-07-27T03:07:21.349Z,100.00
2022-07-27T03:09:52.642Z,100.00
2022-07-27T03:12:22.049Z,100.00
2022-07-27T03:14:52.883Z,100.00
2022-07-27T03:17:23.559Z,100.00
2022-07-27T03:19:53.245Z,100.00
2022-07-27T03:22:22.427Z,100.00
2022-07-27T03:24:53.975Z,100.00
2022-07-27T03:27:23.150Z,100.00
2022-07-27T03:29:53.808Z,100.00
2022-07-27T03:32:23.045Z,100.00
2022-07-27T03:34:54.894Z,100.00
2022-07-27T03:37:24.201Z,100.00
2022-07-27T03:39:53.498Z,100.00
2022-07-27T03:42:22.728Z,100.00
2022-07-27T03:44:54.014Z,100.00
2022-07-27T03:47:23.448Z,100.00
2022-07-27T03:49:53.494Z,100.00
2022-07-27T03:52:23.294Z,100.00
2022-07-27T03:54:52.749Z,100.00
2022-07-27T03:57:22.092Z,100.00
2022-07-27T03:59:51.599Z,100.00
2022-07-27T04:02:22.324Z,100.00
2022-07-27T04:04:51.701Z,100.00
2022-07-27T04:07:21.048Z,100.00
2022-07-27T04:09:50.335Z,100.00
2022-07-27T04:12:20.221Z,100.00
2022-07-27T04:14:52.011Z,100.00
2022-07-27T04:17:55.127Z,100.00
2022-07-27T04:20:22.234Z,100.00
2022-07-27T04:22:51.441Z,100.00
2022-07-27T04:25:36.534Z,100.00
2022-07-27T04:28:07.327Z,100.00
2022-07-27T04:30:36.906Z,100.00
2022-07-27T04:33:08.655Z,100.00
2022-07-27T04:35:40.023Z,100.00
2022-07-27T04:38:36.596Z,100.00
2022-07-27T04:41:07.894Z,100.00
2022-07-27T04:43:38.440Z,100.00
2022-07-27T04:46:15.306Z,100.00
2022-07-27T04:48:49.066Z,100.00
2022-07-27T04:51:19.763Z,100.00
2022-07-27T04:53:53.569Z,100.00
2022-07-27T04:56:27.782Z,100.00
2022-07-27T04:58:57.424Z,100.00
2022-07-27T05:01:30.369Z,100.00
2022-07-27T05:04:05.411Z,100.00
2022-07-27T05:06:34.844Z,100.00
2022-07-27T05:09:04.315Z,100.00
2022-07-27T05:11:33.529Z,100.00
2022-07-27T05:14:04.142Z,100.00
2022-07-27T05:16:33.561Z,100.00
2022-07-27T05:19:06.165Z,100.00
2022-07-27T05:21:35.819Z,100.00
2022-07-27T05:24:05.485Z,100.00
2022-07-27T05:26:34.780Z,100.00
2022-07-27T05:29:04.481Z,100.00
2022-07-27T05:31:33.915Z,100.00
2022-07-27T05:34:04.674Z,100.00
2022-07-27T05:36:35.304Z,100.00
2022-07-27T05:39:10.419Z,100.00
2022-07-27T05:41:43.146Z,100.00
2022-07-27T05:44:12.381Z,100.00
2022-07-27T05:46:41.828Z,100.00
2022-07-27T05:49:12.821Z,100.00
2022-07-27T05:51:42.471Z,100.00
2022-07-27T05:54:14.747Z,100.00
2022-07-27T05:56:43.990Z,100.00
2022-07-27T05:59:13.680Z,100.00
2022-07-27T06:01:43.144Z,100.00
2022-07-27T06:04:15.989Z,100.00
2022-07-27T06:07:02.531Z,100.00
2022-07-27T06:09:37.044Z,100.00
2022-07-27T06:12:06.989Z,100.00
2022-07-27T06:14:36.422Z,100.00
2022-07-27T06:17:07.520Z,100.00
2022-07-27T06:19:40.621Z,100.00
2022-07-27T06:22:12.061Z,100.00
2022-07-27T06:24:41.390Z,100.00
2022-07-27T06:27:10.677Z,100.00
2022-07-27T06:29:39.956Z,100.00
2022-07-27T06:32:10.233Z,100.00
2022-07-27T06:34:43.187Z,100.00
2022-07-27T06:37:12.575Z,100.00
2022-07-27T06:39:41.721Z,100.00
2022-07-27T06:42:14.056Z,100.00
2022-07-27T06:44:52.686Z,100.00
2022-07-27T06:47:28.473Z,100.00
2022-07-27T06:50:00.600Z,100.00
2022-07-27T06:52:37.951Z,100.00
2022-07-27T06:55:07.874Z,100.00
2022-07-27T06:57:38.091Z,100.00
2022-07-27T07:00:09.737Z,100.00
2022-07-27T07:02:59.410Z,100.00
2022-07-27T07:05:31.135Z,100.00
2022-07-27T07:08:03.780Z,100.00
2022-07-27T07:10:35.248Z,100.00
2022-07-27T07:13:07.695Z,100.00
2022-07-27T07:15:45.555Z,100.00
2022-07-27T07:18:40.735Z,100.00
2022-07-27T07:21:11.937Z,100.00
2022-07-27T07:23:42.673Z,100.00
2022-07-27T07:26:12.173Z,100.00
2022-07-27T07:28:41.801Z,100.00
2022-07-27T07:31:17.650Z,100.00
2022-07-27T07:34:00.186Z,100.00
2022-07-27T07:36:34.688Z,100.00
2022-07-27T07:39:04.458Z,100.00
2022-07-27T07:41:36.809Z,100.00
2022-07-27T07:44:06.713Z,100.00
2022-07-27T07:46:37.316Z,100.00
2022-07-27T07:54:01.249Z,100.00
2022-07-27T07:56:30.662Z,100.00
2022-07-27T07:59:04.894Z,100.00
2022-07-27T08:01:34.685Z,100.00
2022-07-27T08:04:04.105Z,100.00
2022-07-27T08:06:33.865Z,100.00
2022-07-27T08:09:04.701Z,100.00
2022-07-27T08:11:34.231Z,100.00
2022-07-27T08:14:03.585Z,100.00
2022-07-27T08:16:32.937Z,100.00
2022-07-27T08:19:02.778Z,100.00
2022-07-27T08:21:35.562Z,100.00
2022-07-27T08:24:09.530Z,100.00
2022-07-27T08:26:39.057Z,100.00
2022-07-27T08:29:13.562Z,100.00
2022-07-27T08:31:52.274Z,100.00
2022-07-27T08:34:22.382Z,100.00
2022-07-27T08:36:51.654Z,100.00
2022-07-27T08:40:05.566Z,100.00
2022-07-27T08:42:12.250Z,100.00
2022-07-27T08:44:43.215Z,100.00
2022-07-27T08:47:15.309Z,100.00
2022-07-27T08:49:46.709Z,100.00
2022-07-27T08:52:20.571Z,100.00
2022-07-27T08:54:51.774Z,100.00
2022-07-27T08:57:21.175Z,100.00
2022-07-27T08:59:51.620Z,100.00
2022-07-27T09:02:24.114Z,100.00
2022-07-27T09:04:56.197Z,100.00
2022-07-27T09:07:31.701Z,98.99
2022-07-27T09:10:02.970Z,95.23
2022-07-27T09:12:34.088Z,92.41
2022-07-27T09:15:11.440Z,92.11
2022-07-27T09:18:04.018Z,93.71
2022-07-27T09:20:33.185Z,96.15
2022-07-27T09:23:02.721Z,92.02
2022-07-27T09:28:32.087Z,84.24
2022-07-27T09:31:08.708Z,87.51
2022-07-27T09:33:46.417Z,82.94
2022-07-27T09:36:18.351Z,88.95
2022-07-27T09:39:01.761Z,84.07
2022-07-27T09:41:44.036Z,88.05
2022-07-27T09:44:34.570Z,87.56
2022-07-27T09:47:23.300Z,80.60
2022-07-27T09:49:52.899Z,83.42
2022-07-27T09:52:29.313Z,81.35
2022-07-27T09:55:05.738Z,81.25
2022-07-27T09:57:53.878Z,75.79
2022-07-27T10:00:24.325Z,74.89
2022-07-27T10:02:55.375Z,75.92
2022-07-27T10:05:25.498Z,80.48
2022-07-27T10:07:56.217Z,80.42
2022-07-27T10:10:25.669Z,80.09
2022-07-27T10:12:56.276Z,73.23
2022-07-27T10:15:27.178Z,75.53
2022-07-27T10:18:09.125Z,69.93
2022-07-27T10:20:47.479Z,75.86
2022-07-27T10:23:28.491Z,68.11
2022-07-27T10:26:18.896Z,75.60
2022-07-27T10:28:59.085Z,73.85
2022-07-27T10:31:33.938Z,69.61
2022-07-27T10:34:05.540Z,66.43
2022-07-27T10:36:55.199Z,68.79
2022-07-27T10:39:47.095Z,70.51
2022-07-27T10:42:34.214Z,68.69
2022-07-27T10:45:09.331Z,66.36
2022-07-27T10:47:42.435Z,68.13
2022-07-27T10:50:36.012Z,70.79
2022-07-27T10:53:11.241Z,67.74
2022-07-27T10:55:51.786Z,69.01
2022-07-27T10:58:52.806Z,63.52
2022-07-27T11:01:24.611Z,64.40
2022-07-27T11:04:09.346Z,67.56
2022-07-27T11:07:15.009Z,68.86
2022-07-27T11:12:30.667Z,71.90
2022-07-27T11:15:02.208Z,76.59
2022-07-27T11:17:56.913Z,74.32
2022-07-27T11:20:27.672Z,74.52
2022-07-27T11:23:48.673Z,73.28
2022-07-27T11:25:59.130Z,73.41
2022-07-27T11:28:33.472Z,75.01
2022-07-27T11:31:04.087Z,74.20
2022-07-27T11:33:35.277Z,75.44
2022-07-27T11:36:08.308Z,79.50
2022-07-27T11:38:48.117Z,80.63
2022-07-27T11:44:20.028Z,77.88
2022-07-27T11:46:52.091Z,81.40
2022-07-27T11:49:28.667Z,77.09
2022-07-27T11:52:01.394Z,76.91
2022-07-27T11:54:33.309Z,76.52
2022-07-27T11:57:05.988Z,75.58
2022-07-27T11:59:37.504Z,80.98
2022-07-27T12:02:08.906Z,84.12
2022-07-27T12:04:41.794Z,79.73
2022-07-27T12:07:17.182Z,82.12
2022-07-27T12:09:50.701Z,82.07
2022-07-27T12:12:26.124Z,77.85
2022-07-27T12:14:57.595Z,74.52
2022-07-27T12:17:31.189Z,73.76
2022-07-27T12:20:09.966Z,77.13
2022-07-27T12:22:41.956Z,73.75
2022-07-27T12:25:25.965Z,78.35
2022-07-27T12:27:57.518Z,77.65
2022-07-27T12:30:32.414Z,74.47
2022-07-27T12:33:03.075Z,74.41
2022-07-27T12:35:46.250Z,74.03
2022-07-27T12:38:16.410Z,74.54
2022-07-27T12:40:48.378Z,74.42
2022-07-27T12:43:20.185Z,76.47
2022-07-27T12:45:52.053Z,74.67
2022-07-27T12:48:25.514Z,71.37
2022-07-27T12:51:03.184Z,69.49
2022-07-27T12:53:34.314Z,68.57
2022-07-27T12:56:06.931Z,68.99
2022-07-27T12:58:37.408Z,64.89
2022-07-27T13:01:07.437Z,69.11
2022-07-27T13:03:37.132Z,70.40
2022-07-27T13:06:12.852Z,68.48
2022-07-27T13:08:42.582Z,67.07
2022-07-27T13:11:11.834Z,64.26
2022-07-27T13:13:43.146Z,64.46
2022-07-27T13:16:12.437Z,64.01
2022-07-27T13:18:41.738Z,59.30
2022-07-27T13:21:12.358Z,60.90
2022-07-27T13:23:41.648Z,61.06
2022-07-27T13:26:10.835Z,65.06
2022-07-27T13:28:40.153Z,66.42
2022-07-27T13:31:09.689Z,67.38
2022-07-27T13:33:38.835Z,71.22
2022-07-27T13:36:09.824Z,73.63
2022-07-27T13:38:40.450Z,76.25
2022-07-27T13:41:10.446Z,78.39
2022-07-27T13:43:39.723Z,80.80
2022-07-27T13:46:10.520Z,80.41
2022-07-27T13:48:39.863Z,82.25
2022-07-27T13:51:11.247Z,82.95
2022-07-27T13:53:41.851Z,84.83
2022-07-27T13:56:14.098Z,85.68
2022-07-27T13:58:45.339Z,86.21
2022-07-27T14:01:15.582Z,85.88
2022-07-27T14:03:45.197Z,85.75
2022-07-27T14:06:16.735Z,86.70
2022-07-27T14:08:48.568Z,87.34
2022-07-27T14:11:17.943Z,86.76
2022-07-27T14:13:47.321Z,85.36
2022-07-27T14:16:16.495Z,86.83
2022-07-27T14:18:45.776Z,85.46
2022-07-27T14:21:15.239Z,87.36
2022-07-27T14:23:45.017Z,85.80
2022-07-27T14:26:15.814Z,85.86
2022-07-27T14:28:45.258Z,84.31
2022-07-27T14:31:14.785Z,82.51
2022-07-27T14:33:44.074Z,82.50
2022-07-27T14:36:13.425Z,82.81
2022-07-27T14:38:44.350Z,83.06
2022-07-27T14:41:13.469Z,83.94
2022-07-27T14:43:45.236Z,84.64
2022-07-27T14:46:14.443Z,83.98
2022-07-27T14:49:12.538Z,84.76
2022-07-27T14:51:33.034Z,84.29
2022-07-27T14:54:02.424Z,83.96
2022-07-27T14:56:32.724Z,84.45
2022-07-27T14:59:06.509Z,85.85
2022-07-27T15:01:37.522Z,86.85
2022-07-27T15:04:07.474Z,86.79
2022-07-27T15:06:39.217Z,84.19
2022-07-27T15:09:13.430Z,84.39
2022-07-27T15:12:07.800Z,85.47
2022-07-27T15:14:39.838Z,84.17
2022-07-27T15:17:09.008Z,83.84
2022-07-27T15:19:39.104Z,82.79
2022-07-27T15:22:08.363Z,80.99
2022-07-27T15:24:38.621Z,80.82
2022-07-27T15:27:07.937Z,82.70
2022-07-27T15:29:39.129Z,79.78
2022-07-27T15:32:10.065Z,79.61
2022-07-27T15:34:40.618Z,80.42
2022-07-27T15:37:09.840Z,82.04
2022-07-27T15:39:41.325Z,80.95
2022-07-27T15:42:10.921Z,82.60
2022-07-27T15:44:42.362Z,80.98
2022-07-27T15:47:11.768Z,77.71
2022-07-27T15:49:41.110Z,79.76
2022-07-27T15:52:10.440Z,80.46
2022-07-27T15:54:45.368Z,81.09
2022-07-27T15:57:14.957Z,81.30
2022-07-27T15:59:45.925Z,80.88
2022-07-27T16:02:15.175Z,82.44
2022-07-27T16:04:52.209Z,81.90
2022-07-27T16:07:21.518Z,82.50
2022-07-27T16:09:51.077Z,79.37
2022-07-27T16:12:20.621Z,79.93
2022-07-27T16:14:51.251Z,81.27
2022-07-27T16:17:20.411Z,80.29
2022-07-27T16:19:49.679Z,81.83
2022-07-27T16:22:18.964Z,82.17
2022-07-27T16:24:48.747Z,79.50
2022-07-27T16:27:18.178Z,77.97
2022-07-27T16:29:47.916Z,77.40
2022-07-27T16:32:18.704Z,78.62
2022-07-27T16:34:48.551Z,77.66
2022-07-27T16:37:20.813Z,77.64
2022-07-27T16:39:50.378Z,76.84
2022-07-27T16:42:19.628Z,77.73
2022-07-27T16:44:49.277Z,78.49
2022-07-27T16:47:22.984Z,79.51
2022-07-27T16:49:52.660Z,81.01
2022-07-27T16:52:21.988Z,82.69
2022-07-27T16:54:51.367Z,82.56
2022-07-27T16:57:20.913Z,82.96
2022-07-27T16:59:50.179Z,84.82
2022-07-27T17:02:21.035Z,86.05
2022-07-27T17:04:56.636Z,86.90
2022-07-27T17:07:26.215Z,87.53
2022-07-27T17:09:55.361Z,88.18
2022-07-27T17:12:25.187Z,90.63
2022-07-27T17:14:56.375Z,87.24
2022-07-27T17:17:25.678Z,90.08
2022-07-27T17:20:06.139Z,91.53
2022-07-27T17:22:35.396Z,93.31
2022-07-27T17:25:05.115Z,97.00
2022-07-27T17:27:34.979Z,98.28
2022-07-27T17:30:07.503Z,100.00
2022-07-27T17:32:37.917Z,100.00
2022-07-27T17:35:10.146Z,100.00
2022-07-27T17:38:04.487Z,100.00
2022-07-27T17:40:28.528Z,100.00
2022-07-27T17:42:58.812Z,100.00
2022-07-27T17:45:28.260Z,100.00
2022-07-27T17:47:57.496Z,100.00
2022-07-27T17:50:28.129Z,100.00
2022-07-27T17:52:58.250Z,100.00
2022-07-27T17:55:27.540Z,100.00
2022-07-27T17:57:58.146Z,100.00
2022-07-27T18:00:27.406Z,100.00
2022-07-27T18:02:58.503Z,100.00
2022-07-27T18:05:29.122Z,100.00
2022-07-27T18:07:58.527Z,100.00
2022-07-27T18:10:28.826Z,100.00
2022-07-27T18:12:58.026Z,100.00
2022-07-27T18:15:47.039Z,100.00
2022-07-27T18:18:17.111Z,100.00
2022-07-27T18:20:50.486Z,100.00
2022-07-27T18:23:20.833Z,100.00
2022-07-27T18:25:50.879Z,100.00
2022-07-27T18:28:21.316Z,100.00
2022-07-27T18:30:53.530Z,100.00
2022-07-27T18:33:23.274Z,100.00
2022-07-27T18:35:54.477Z,100.00
2022-07-27T18:38:25.356Z,100.00
2022-07-27T18:40:54.776Z,100.00
2022-07-27T18:43:26.082Z,100.00
2022-07-27T18:45:55.482Z,100.00
2022-07-27T18:48:51.211Z,100.00
2022-07-27T18:51:21.879Z,100.00
2022-07-27T18:53:52.082Z,100.00
2022-07-27T18:56:26.751Z,100.00
2022-07-27T18:58:55.963Z,100.00
2022-07-27T19:01:25.682Z,100.00
2022-07-27T19:03:55.128Z,100.00
2022-07-27T19:06:25.895Z,100.00
2022-07-27T19:08:55.817Z,100.00
2022-07-27T19:11:25.286Z,100.00
2022-07-27T19:13:56.737Z,100.00
2022-07-27T19:16:26.419Z,100.00
2022-07-27T19:18:56.141Z,100.00
2022-07-27T19:21:26.987Z,100.00
2022-07-27T19:23:56.299Z,100.00
2022-07-27T19:26:26.220Z,100.00
2022-07-27T19:28:55.484Z,100.00
2022-07-27T19:31:25.540Z,100.00
2022-07-27T19:33:56.225Z,100.00
2022-07-27T19:36:27.751Z,100.00
2022-07-27T19:38:57.375Z,100.00
2022-07-27T19:41:26.768Z,100.00
2022-07-27T19:43:56.048Z,100.00
2022-07-27T19:46:25.459Z,100.00
2022-07-27T19:48:55.075Z,100.00
2022-07-27T19:51:24.388Z,100.00
2022-07-27T19:53:55.350Z,100.00
2022-07-27T19:56:32.793Z,100.00
2022-07-27T19:59:06.684Z,100.00
2022-07-27T20:01:36.738Z,100.00
2022-07-27T20:04:09.890Z,100.00
2022-07-27T20:06:39.307Z,100.00
2022-07-27T20:09:13.772Z,100.00
2022-07-27T20:11:44.491Z,100.00
2022-07-27T20:14:15.312Z,100.00
2022-07-27T20:16:48.401Z,100.00
2022-07-27T20:19:20.248Z,100.00
2022-07-27T20:21:50.791Z,100.00
2022-07-27T20:24:21.682Z,100.00
2022-07-27T20:26:52.036Z,100.00
2022-07-27T20:29:46.577Z,100.00
2022-07-27T20:32:16.033Z,100.00
2022-07-27T20:34:46.268Z,100.00
2022-07-27T20:37:18.115Z,100.00
2022-07-27T20:39:52.333Z,100.00
2022-07-27T20:42:21.780Z,100.00
2022-07-27T20:45:35.575Z,100.00
2022-07-27T20:48:05.881Z,100.00
2022-07-27T20:50:35.562Z,100.00
2022-07-27T20:53:05.292Z,100.00
2022-07-27T20:55:36.447Z,100.00
2022-07-27T20:58:05.992Z,100.00
2022-07-27T21:00:36.095Z,100.00
2022-07-27T21:03:56.558Z,100.00
2022-07-27T21:06:25.791Z,100.00
2022-07-27T21:08:56.265Z,100.00
2022-07-27T21:11:29.977Z,100.00
2022-07-27T21:14:00.852Z,100.00
2022-07-27T21:16:32.379Z,100.00
2022-07-27T21:19:02.911Z,100.00
2022-07-27T21:21:32.397Z,100.00
2022-07-27T21:24:17.905Z,100.00
2022-07-27T21:26:52.236Z,100.00
2022-07-27T21:29:23.215Z,100.00
2022-07-27T21:31:56.427Z,100.00
2022-07-27T21:34:26.041Z,100.00
2022-07-27T21:36:55.606Z,100.00
2022-07-27T21:39:25.291Z,100.00
2022-07-27T21:42:01.738Z,100.00
2022-07-27T21:44:37.880Z,100.00
2022-07-27T21:47:13.431Z,100.00
2022-07-27T21:49:43.383Z,100.00
2022-07-27T21:52:12.650Z,100.00
2022-07-27T21:54:41.902Z,100.00
2022-07-27T21:57:12.638Z,100.00
2022-07-27T21:59:41.825Z,100.00
2022-07-27T22:02:11.175Z,100.00
2022-07-27T22:04:40.596Z,100.00
2022-07-27T22:07:17.989Z,100.00
2022-07-27T22:09:48.772Z,100.00
2022-07-27T22:12:19.441Z,100.00
2022-07-27T22:14:48.687Z,100.00
2022-07-27T22:17:17.965Z,100.00
2022-07-27T22:19:47.185Z,100.00
2022-07-27T22:22:16.735Z,100.00
2022-07-27T22:24:45.929Z,100.00
2022-07-27T22:27:15.225Z,100.00
2022-07-27T22:29:45.871Z,100.00
2022-07-27T22:32:15.229Z,100.00
2022-07-27T22:34:44.471Z,100.00
2022-07-27T22:37:15.054Z,100.00
2022-07-27T22:39:44.475Z,100.00
2022-07-27T22:42:13.829Z,100.00
2022-07-27T22:44:43.269Z,100.00
2022-07-27T22:47:13.854Z,100.00
2022-07-27T22:49:43.032Z,100.00
2022-07-27T22:52:15.330Z,100.00
2022-07-27T22:54:44.981Z,100.00
2022-07-27T22:57:14.332Z,100.00
2022-07-27T22:59:43.659Z,100.00
2022-07-27T23:02:14.263Z,100.00
2022-07-27T23:04:43.730Z,100.00
2022-07-27T23:07:13.170Z,100.00
2022-07-27T23:09:42.362Z,100.00
2022-07-27T23:12:11.665Z,100.00
2022-07-27T23:14:42.784Z,100.00
2022-07-27T23:17:19.878Z,100.00
2022-07-27T23:19:49.161Z,100.00
2022-07-27T23:22:18.442Z,100.00
2022-07-27T23:24:49.600Z,100.00
2022-07-27T23:27:20.501Z,100.00
2022-07-27T23:29:49.956Z,100.00
2022-07-27T23:32:20.701Z,100.00
2022-07-27T23:34:49.942Z,100.00
2022-07-27T23:37:19.387Z,100.00
2022-07-27T23:39:48.843Z,100.00
2022-07-27T23:42:18.109Z,100.00
2022-07-27T23:44:47.276Z,100.00
2022-07-27T23:47:17.137Z,100.00
2022-07-27T23:49:48.022Z,100.00
2022-07-27T23:52:17.367Z,100.00
2022-07-27T23:54:46.657Z,100.00
2022-07-27T23:57:15.966Z,100.00
2022-07-27T23:59:45.270Z,100.00
